sensor_id;sensor_type;location;lat;lon;timestamp;P1;durP1;ratioP1;P2;durP2;ratioP2
8462;SDS011;4268;52.506;13.462;2023-02-12T00:00:42;21.03;;;19.30;;
8462;SDS011;4268;52.506;13.462;2023-02-12T00:03:08;13.97;;;9.80;;
8462;SDS011;4268;52.506;13.462;2023-02-12T00:05:38;13.53;;;10.17;;
8462;SDS011;4268;52.506;13.462;2023-02-12T00:08:05;11.43;;;8.87;;
8462;SDS011;4268;52.506;13.462;2023-02-12T00:10:31;11.73;;;9.20;;
8462;SDS011;4268;52.506;13.462;2023-02-12T00:12:57;12.67;;;9.03;;
8462;SDS011;4268;52.506;13.462;2023-02-12T00:15:22;14.20;;;9.60;;
8462;SDS011;4268;52.506;13.462;2023-02-12T00:17:48;10.93;;;8.87;;
8462;SDS011;4268;52.506;13.462;2023-02-12T00:20:13;15.20;;;8.97;;
8462;SDS011;4268;52.506;13.462;2023-02-12T00:22:39;11.40;;;8.73;;
8462;SDS011;4268;52.506;13.462;2023-02-12T00:25:04;13.40;;;8.77;;
8462;SDS011;4268;52.506;13.462;2023-02-12T00:27:33;11.57;;;9.07;;
8462;SDS011;4268;52.506;13.462;2023-02-12T00:29:59;10.23;;;8.37;;
8462;SDS011;4268;52.506;13.462;2023-02-12T00:32:25;11.70;;;8.80;;
8462;SDS011;4268;52.506;13.462;2023-02-12T00:34:50;12.40;;;8.27;;
8462;SDS011;4268;52.506;13.462;2023-02-12T00:37:16;12.37;;;8.60;;
8462;SDS011;4268;52.506;13.462;2023-02-12T00:39:41;10.57;;;8.47;;
8462;SDS011;4268;52.506;13.462;2023-02-12T00:42:08;14.20;;;7.93;;
8462;SDS011;4268;52.506;13.462;2023-02-12T00:44:33;12.90;;;10.80;;
8462;SDS011;4268;52.506;13.462;2023-02-12T00:46:59;10.90;;;7.70;;
8462;SDS011;4268;52.506;13.462;2023-02-12T00:49:26;14.30;;;7.77;;
8462;SDS011;4268;52.506;13.462;2023-02-12T00:51:58;10.97;;;7.63;;
8462;SDS011;4268;52.506;13.462;2023-02-12T00:54:28;12.90;;;8.63;;
8462;SDS011;4268;52.506;13.462;2023-02-12T00:56:54;10.20;;;8.07;;
8462;SDS011;4268;52.506;13.462;2023-02-12T00:59:21;13.20;;;8.23;;
8462;SDS011;4268;52.506;13.462;2023-02-12T01:01:47;11.47;;;8.10;;
8462;SDS011;4268;52.506;13.462;2023-02-12T01:04:12;14.27;;;8.47;;
8462;SDS011;4268;52.506;13.462;2023-02-12T01:06:38;10.50;;;7.63;;
8462;SDS011;4268;52.506;13.462;2023-02-12T01:09:03;10.70;;;7.63;;
8462;SDS011;4268;52.506;13.462;2023-02-12T01:11:29;15.73;;;8.60;;
8462;SDS011;4268;52.506;13.462;2023-02-12T01:13:54;12.20;;;7.70;;
8462;SDS011;4268;52.506;13.462;2023-02-12T01:16:21;10.10;;;7.30;;
8462;SDS011;4268;52.506;13.462;2023-02-12T01:18:48;14.30;;;7.83;;
8462;SDS011;4268;52.506;13.462;2023-02-12T01:21:19;13.27;;;7.47;;
8462;SDS011;4268;52.506;13.462;2023-02-12T01:23:47;13.67;;;11.43;;
8462;SDS011;4268;52.506;13.462;2023-02-12T01:26:13;11.63;;;7.30;;
8462;SDS011;4268;52.506;13.462;2023-02-12T01:28:41;10.33;;;7.27;;
8462;SDS011;4268;52.506;13.462;2023-02-12T01:31:09;12.90;;;9.67;;
8462;SDS011;4268;52.506;13.462;2023-02-12T01:33:42;13.07;;;7.70;;
8462;SDS011;4268;52.506;13.462;2023-02-12T01:36:11;12.80;;;7.17;;
8462;SDS011;4268;52.506;13.462;2023-02-12T01:38:36;10.50;;;6.97;;
8462;SDS011;4268;52.506;13.462;2023-02-12T01:41:06;10.87;;;7.23;;
8462;SDS011;4268;52.506;13.462;2023-02-12T01:43:35;11.43;;;6.80;;
8462;SDS011;4268;52.506;13.462;2023-02-12T01:46:01;13.80;;;7.77;;
8462;SDS011;4268;52.506;13.462;2023-02-12T01:48:29;14.53;;;7.90;;
8462;SDS011;4268;52.506;13.462;2023-02-12T01:50:58;13.23;;;7.10;;
8462;SDS011;4268;52.506;13.462;2023-02-12T01:53:27;11.87;;;6.97;;
8462;SDS011;4268;52.506;13.462;2023-02-12T01:55:57;12.20;;;6.40;;
8462;SDS011;4268;52.506;13.462;2023-02-12T01:58:25;14.93;;;7.33;;
8462;SDS011;4268;52.506;13.462;2023-02-12T02:00:52;9.97;;;6.60;;
8462;SDS011;4268;52.506;13.462;2023-02-12T02:03:18;10.50;;;7.00;;
8462;SDS011;4268;52.506;13.462;2023-02-12T02:05:46;12.23;;;10.13;;
8462;SDS011;4268;52.506;13.462;2023-02-12T02:08:20;13.57;;;7.07;;
8462;SDS011;4268;52.506;13.462;2023-02-12T02:10:46;9.70;;;6.50;;
8462;SDS011;4268;52.506;13.462;2023-02-12T02:13:12;13.47;;;7.20;;
8462;SDS011;4268;52.506;13.462;2023-02-12T02:15:57;15.57;;;7.03;;
8462;SDS011;4268;52.506;13.462;2023-02-12T02:18:29;12.27;;;6.97;;
8462;SDS011;4268;52.506;13.462;2023-02-12T02:21:21;12.90;;;7.60;;
8462;SDS011;4268;52.506;13.462;2023-02-12T02:24:16;11.87;;;6.33;;
8462;SDS011;4268;52.506;13.462;2023-02-12T02:27:19;13.27;;;6.70;;
8462;SDS011;4268;52.506;13.462;2023-02-12T02:32:47;12.13;;;6.47;;
8462;SDS011;4268;52.506;13.462;2023-02-12T02:35:25;9.47;;;6.13;;
8462;SDS011;4268;52.506;13.462;2023-02-12T02:40:53;12.70;;;7.23;;
8462;SDS011;4268;52.506;13.462;2023-02-12T02:43:34;9.53;;;6.00;;
8462;SDS011;4268;52.506;13.462;2023-02-12T02:46:06;12.47;;;6.47;;
8462;SDS011;4268;52.506;13.462;2023-02-12T02:48:36;10.63;;;5.67;;
8462;SDS011;4268;52.506;13.462;2023-02-12T02:51:09;10.57;;;6.23;;
8462;SDS011;4268;52.506;13.462;2023-02-12T02:53:41;9.67;;;6.17;;
8462;SDS011;4268;52.506;13.462;2023-02-12T02:56:12;14.27;;;6.40;;
8462;SDS011;4268;52.506;13.462;2023-02-12T02:58:42;13.13;;;6.63;;
8462;SDS011;4268;52.506;13.462;2023-02-12T03:01:14;10.77;;;6.50;;
8462;SDS011;4268;52.506;13.462;2023-02-12T03:03:53;10.07;;;6.13;;
8462;SDS011;4268;52.506;13.462;2023-02-12T03:06:32;16.07;;;6.50;;
8462;SDS011;4268;52.506;13.462;2023-02-12T03:09:08;10.80;;;5.97;;
8462;SDS011;4268;52.506;13.462;2023-02-12T03:11:43;10.63;;;6.27;;
8462;SDS011;4268;52.506;13.462;2023-02-12T03:14:14;13.00;;;11.70;;
8462;SDS011;4268;52.506;13.462;2023-02-12T03:16:55;15.17;;;6.80;;
8462;SDS011;4268;52.506;13.462;2023-02-12T03:19:28;11.20;;;6.57;;
8462;SDS011;4268;52.506;13.462;2023-02-12T03:22:01;14.47;;;6.40;;
8462;SDS011;4268;52.506;13.462;2023-02-12T03:27:13;10.70;;;6.20;;
8462;SDS011;4268;52.506;13.462;2023-02-12T03:29:46;12.00;;;6.90;;
8462;SDS011;4268;52.506;13.462;2023-02-12T03:35:15;12.60;;;6.67;;
8462;SDS011;4268;52.506;13.462;2023-02-12T03:40:36;13.27;;;6.30;;
8462;SDS011;4268;52.506;13.462;2023-02-12T03:43:13;12.07;;;6.70;;
8462;SDS011;4268;52.506;13.462;2023-02-12T03:46:00;9.37;;;6.23;;
8462;SDS011;4268;52.506;13.462;2023-02-12T03:48:32;11.97;;;6.67;;
8462;SDS011;4268;52.506;13.462;2023-02-12T03:53:42;12.67;;;6.90;;
8462;SDS011;4268;52.506;13.462;2023-02-12T03:56:17;11.37;;;7.17;;
8462;SDS011;4268;52.506;13.462;2023-02-12T03:58:46;11.70;;;6.77;;
8462;SDS011;4268;52.506;13.462;2023-02-12T04:01:11;14.13;;;6.50;;
8462;SDS011;4268;52.506;13.462;2023-02-12T04:03:38;12.90;;;7.20;;
8462;SDS011;4268;52.506;13.462;2023-02-12T04:06:04;11.43;;;7.27;;
8462;SDS011;4268;52.506;13.462;2023-02-12T04:08:41;12.97;;;6.67;;
8462;SDS011;4268;52.506;13.462;2023-02-12T04:11:10;15.20;;;7.47;;
8462;SDS011;4268;52.506;13.462;2023-02-12T04:13:45;12.43;;;7.30;;
8462;SDS011;4268;52.506;13.462;2023-02-12T04:19:33;13.37;;;8.70;;
8462;SDS011;4268;52.506;13.462;2023-02-12T04:22:42;14.87;;;7.10;;
8462;SDS011;4268;52.506;13.462;2023-02-12T04:28:02;13.93;;;6.73;;
8462;SDS011;4268;52.506;13.462;2023-02-12T04:30:40;15.33;;;7.53;;
8462;SDS011;4268;52.506;13.462;2023-02-12T04:33:10;16.77;;;7.80;;
8462;SDS011;4268;52.506;13.462;2023-02-12T04:35:45;14.00;;;7.07;;
8462;SDS011;4268;52.506;13.462;2023-02-12T04:38:20;11.67;;;6.90;;
8462;SDS011;4268;52.506;13.462;2023-02-12T04:40:50;14.47;;;7.50;;
8462;SDS011;4268;52.506;13.462;2023-02-12T04:43:29;14.13;;;9.10;;
8462;SDS011;4268;52.506;13.462;2023-02-12T04:45:58;14.37;;;8.33;;
8462;SDS011;4268;52.506;13.462;2023-02-12T04:48:24;13.83;;;8.23;;
8462;SDS011;4268;52.506;13.462;2023-02-12T04:50:50;15.13;;;7.67;;
8462;SDS011;4268;52.506;13.462;2023-02-12T04:53:15;14.27;;;7.10;;
8462;SDS011;4268;52.506;13.462;2023-02-12T04:55:41;11.43;;;7.83;;
8462;SDS011;4268;52.506;13.462;2023-02-12T04:58:07;16.87;;;7.70;;
8462;SDS011;4268;52.506;13.462;2023-02-12T05:00:32;14.77;;;7.60;;
8462;SDS011;4268;52.506;13.462;2023-02-12T05:02:58;12.13;;;7.07;;
8462;SDS011;4268;52.506;13.462;2023-02-12T05:05:24;11.93;;;7.37;;
8462;SDS011;4268;52.506;13.462;2023-02-12T05:07:50;10.07;;;6.80;;
8462;SDS011;4268;52.506;13.462;2023-02-12T05:10:15;15.13;;;7.00;;
8462;SDS011;4268;52.506;13.462;2023-02-12T05:12:41;15.27;;;8.20;;
8462;SDS011;4268;52.506;13.462;2023-02-12T05:15:06;13.10;;;6.73;;
8462;SDS011;4268;52.506;13.462;2023-02-12T05:17:33;15.10;;;7.33;;
8462;SDS011;4268;52.506;13.462;2023-02-12T05:19:58;12.50;;;6.80;;
8462;SDS011;4268;52.506;13.462;2023-02-12T05:22:24;11.63;;;6.80;;
8462;SDS011;4268;52.506;13.462;2023-02-12T05:24:49;13.50;;;7.10;;
8462;SDS011;4268;52.506;13.462;2023-02-12T05:27:15;13.77;;;6.53;;
8462;SDS011;4268;52.506;13.462;2023-02-12T05:29:40;14.40;;;7.37;;
8462;SDS011;4268;52.506;13.462;2023-02-12T05:32:06;14.07;;;7.17;;
8462;SDS011;4268;52.506;13.462;2023-02-12T05:34:31;12.17;;;6.50;;
8462;SDS011;4268;52.506;13.462;2023-02-12T05:36:57;10.27;;;6.43;;
8462;SDS011;4268;52.506;13.462;2023-02-12T05:39:23;15.27;;;7.27;;
8462;SDS011;4268;52.506;13.462;2023-02-12T05:41:48;14.23;;;6.80;;
8462;SDS011;4268;52.506;13.462;2023-02-12T05:44:14;12.23;;;6.73;;
8462;SDS011;4268;52.506;13.462;2023-02-12T05:46:40;12.30;;;7.00;;
8462;SDS011;4268;52.506;13.462;2023-02-12T05:49:06;16.53;;;7.00;;
8462;SDS011;4268;52.506;13.462;2023-02-12T05:51:32;13.67;;;6.53;;
8462;SDS011;4268;52.506;13.462;2023-02-12T05:53:59;11.17;;;6.60;;
8462;SDS011;4268;52.506;13.462;2023-02-12T05:56:41;10.67;;;5.67;;
8462;SDS011;4268;52.506;13.462;2023-02-12T05:59:13;8.77;;;6.10;;
8462;SDS011;4268;52.506;13.462;2023-02-12T06:01:42;15.53;;;7.13;;
8462;SDS011;4268;52.506;13.462;2023-02-12T06:04:15;9.03;;;6.37;;
8462;SDS011;4268;52.506;13.462;2023-02-12T06:06:47;11.73;;;6.67;;
8462;SDS011;4268;52.506;13.462;2023-02-12T06:09:13;12.90;;;6.90;;
8462;SDS011;4268;52.506;13.462;2023-02-12T06:11:39;14.83;;;6.60;;
8462;SDS011;4268;52.506;13.462;2023-02-12T06:14:05;10.77;;;5.47;;
8462;SDS011;4268;52.506;13.462;2023-02-12T06:16:32;15.10;;;7.13;;
8462;SDS011;4268;52.506;13.462;2023-02-12T06:18:59;16.07;;;7.27;;
8462;SDS011;4268;52.506;13.462;2023-02-12T06:21:26;12.43;;;6.60;;
8462;SDS011;4268;52.506;13.462;2023-02-12T06:23:52;11.30;;;6.30;;
8462;SDS011;4268;52.506;13.462;2023-02-12T06:26:18;9.87;;;6.33;;
8462;SDS011;4268;52.506;13.462;2023-02-12T06:28:45;12.47;;;6.83;;
8462;SDS011;4268;52.506;13.462;2023-02-12T06:31:16;15.63;;;7.20;;
8462;SDS011;4268;52.506;13.462;2023-02-12T06:33:41;9.93;;;6.63;;
8462;SDS011;4268;52.506;13.462;2023-02-12T06:36:07;12.47;;;7.50;;
8462;SDS011;4268;52.506;13.462;2023-02-12T06:38:33;10.97;;;7.30;;
8462;SDS011;4268;52.506;13.462;2023-02-12T06:41:02;14.30;;;7.53;;
8462;SDS011;4268;52.506;13.462;2023-02-12T06:43:28;11.73;;;7.00;;
8462;SDS011;4268;52.506;13.462;2023-02-12T06:45:54;15.57;;;7.17;;
8462;SDS011;4268;52.506;13.462;2023-02-12T06:48:19;10.67;;;6.43;;
8462;SDS011;4268;52.506;13.462;2023-02-12T06:50:45;16.10;;;7.17;;
8462;SDS011;4268;52.506;13.462;2023-02-12T06:53:10;12.67;;;6.37;;
8462;SDS011;4268;52.506;13.462;2023-02-12T06:55:36;13.13;;;6.43;;
8462;SDS011;4268;52.506;13.462;2023-02-12T06:58:01;13.00;;;6.30;;
8462;SDS011;4268;52.506;13.462;2023-02-12T07:00:27;11.90;;;6.30;;
8462;SDS011;4268;52.506;13.462;2023-02-12T07:02:56;10.77;;;6.53;;
8462;SDS011;4268;52.506;13.462;2023-02-12T07:05:21;13.43;;;11.50;;
8462;SDS011;4268;52.506;13.462;2023-02-12T07:07:47;12.17;;;6.00;;
8462;SDS011;4268;52.506;13.462;2023-02-12T07:10:13;12.10;;;6.10;;
8462;SDS011;4268;52.506;13.462;2023-02-12T07:12:38;10.70;;;5.73;;
8462;SDS011;4268;52.506;13.462;2023-02-12T07:15:04;12.07;;;6.37;;
8462;SDS011;4268;52.506;13.462;2023-02-12T07:17:30;12.53;;;6.17;;
8462;SDS011;4268;52.506;13.462;2023-02-12T07:19:55;10.47;;;6.40;;
8462;SDS011;4268;52.506;13.462;2023-02-12T07:22:21;11.77;;;5.97;;
8462;SDS011;4268;52.506;13.462;2023-02-12T07:24:47;10.63;;;6.43;;
8462;SDS011;4268;52.506;13.462;2023-02-12T07:27:13;10.37;;;5.57;;
8462;SDS011;4268;52.506;13.462;2023-02-12T07:29:39;11.43;;;5.93;;
8462;SDS011;4268;52.506;13.462;2023-02-12T07:32:05;11.07;;;6.20;;
8462;SDS011;4268;52.506;13.462;2023-02-12T07:34:31;10.60;;;6.10;;
8462;SDS011;4268;52.506;13.462;2023-02-12T07:36:56;10.70;;;6.10;;
8462;SDS011;4268;52.506;13.462;2023-02-12T07:39:22;14.57;;;10.63;;
8462;SDS011;4268;52.506;13.462;2023-02-12T07:41:48;13.37;;;9.57;;
8462;SDS011;4268;52.506;13.462;2023-02-12T07:44:13;10.97;;;5.93;;
8462;SDS011;4268;52.506;13.462;2023-02-12T07:46:40;12.37;;;6.17;;
8462;SDS011;4268;52.506;13.462;2023-02-12T07:49:09;10.23;;;6.13;;
8462;SDS011;4268;52.506;13.462;2023-02-12T07:51:37;11.20;;;5.97;;
8462;SDS011;4268;52.506;13.462;2023-02-12T07:54:03;11.10;;;6.30;;
8462;SDS011;4268;52.506;13.462;2023-02-12T07:56:30;11.10;;;6.23;;
8462;SDS011;4268;52.506;13.462;2023-02-12T07:59:00;11.43;;;7.00;;
8462;SDS011;4268;52.506;13.462;2023-02-12T08:01:34;9.87;;;5.73;;
8462;SDS011;4268;52.506;13.462;2023-02-12T08:04:05;10.87;;;6.37;;
8462;SDS011;4268;52.506;13.462;2023-02-12T08:06:36;12.73;;;7.63;;
8462;SDS011;4268;52.506;13.462;2023-02-12T08:09:03;16.20;;;7.87;;
8462;SDS011;4268;52.506;13.462;2023-02-12T08:11:31;10.50;;;6.40;;
8462;SDS011;4268;52.506;13.462;2023-02-12T08:13:57;16.43;;;7.30;;
8462;SDS011;4268;52.506;13.462;2023-02-12T08:16:24;14.70;;;6.87;;
8462;SDS011;4268;52.506;13.462;2023-02-12T08:18:51;12.37;;;6.67;;
8462;SDS011;4268;52.506;13.462;2023-02-12T08:21:19;12.27;;;6.87;;
8462;SDS011;4268;52.506;13.462;2023-02-12T08:23:45;13.70;;;7.03;;
8462;SDS011;4268;52.506;13.462;2023-02-12T08:26:28;10.33;;;6.57;;
8462;SDS011;4268;52.506;13.462;2023-02-12T08:28:56;11.47;;;5.83;;
8462;SDS011;4268;52.506;13.462;2023-02-12T08:31:27;11.73;;;5.93;;
8462;SDS011;4268;52.506;13.462;2023-02-12T08:33:55;11.93;;;6.50;;
8462;SDS011;4268;52.506;13.462;2023-02-12T08:36:25;10.70;;;6.10;;
8462;SDS011;4268;52.506;13.462;2023-02-12T08:38:52;10.43;;;5.70;;
8462;SDS011;4268;52.506;13.462;2023-02-12T08:41:22;9.17;;;5.43;;
8462;SDS011;4268;52.506;13.462;2023-02-12T08:43:49;12.07;;;5.90;;
8462;SDS011;4268;52.506;13.462;2023-02-12T08:46:18;10.43;;;6.80;;
8462;SDS011;4268;52.506;13.462;2023-02-12T08:48:45;13.87;;;6.93;;
8462;SDS011;4268;52.506;13.462;2023-02-12T08:51:11;12.63;;;6.23;;
8462;SDS011;4268;52.506;13.462;2023-02-12T08:53:39;11.40;;;6.20;;
8462;SDS011;4268;52.506;13.462;2023-02-12T08:56:06;13.00;;;6.40;;
8462;SDS011;4268;52.506;13.462;2023-02-12T08:58:33;10.50;;;5.73;;
8462;SDS011;4268;52.506;13.462;2023-02-12T09:00:58;12.20;;;5.63;;
8462;SDS011;4268;52.506;13.462;2023-02-12T09:03:24;13.10;;;6.13;;
8462;SDS011;4268;52.506;13.462;2023-02-12T09:05:49;9.23;;;5.57;;
8462;SDS011;4268;52.506;13.462;2023-02-12T09:08:15;7.43;;;5.17;;
8462;SDS011;4268;52.506;13.462;2023-02-12T09:10:41;10.23;;;5.60;;
8462;SDS011;4268;52.506;13.462;2023-02-12T09:13:08;11.77;;;5.97;;
8462;SDS011;4268;52.506;13.462;2023-02-12T09:15:37;11.63;;;6.07;;
8462;SDS011;4268;52.506;13.462;2023-02-12T09:18:04;10.97;;;5.87;;
8462;SDS011;4268;52.506;13.462;2023-02-12T09:20:30;10.67;;;6.37;;
8462;SDS011;4268;52.506;13.462;2023-02-12T09:22:57;10.33;;;5.90;;
8462;SDS011;4268;52.506;13.462;2023-02-12T09:25:23;10.90;;;6.40;;
8462;SDS011;4268;52.506;13.462;2023-02-12T09:27:49;10.63;;;6.50;;
8462;SDS011;4268;52.506;13.462;2023-02-12T09:30:15;13.63;;;6.53;;
8462;SDS011;4268;52.506;13.462;2023-02-12T09:32:41;12.20;;;6.90;;
8462;SDS011;4268;52.506;13.462;2023-02-12T09:35:06;10.40;;;6.20;;
8462;SDS011;4268;52.506;13.462;2023-02-12T09:37:32;11.60;;;6.30;;
8462;SDS011;4268;52.506;13.462;2023-02-12T09:39:58;12.40;;;6.00;;
8462;SDS011;4268;52.506;13.462;2023-02-12T09:42:26;12.90;;;6.33;;
8462;SDS011;4268;52.506;13.462;2023-02-12T09:45:20;10.90;;;6.20;;
8462;SDS011;4268;52.506;13.462;2023-02-12T09:50:45;10.27;;;5.60;;
8462;SDS011;4268;52.506;13.462;2023-02-12T09:53:22;10.20;;;5.87;;
8462;SDS011;4268;52.506;13.462;2023-02-12T09:55:50;10.20;;;5.87;;
8462;SDS011;4268;52.506;13.462;2023-02-12T09:58:19;10.07;;;5.40;;
8462;SDS011;4268;52.506;13.462;2023-02-12T10:01:12;11.07;;;6.13;;
8462;SDS011;4268;52.506;13.462;2023-02-12T10:03:45;8.60;;;5.83;;
8462;SDS011;4268;52.506;13.462;2023-02-12T10:06:14;10.40;;;5.77;;
8462;SDS011;4268;52.506;13.462;2023-02-12T10:17:14;8.73;;;6.00;;
8462;SDS011;4268;52.506;13.462;2023-02-12T10:20:08;12.07;;;7.53;;
8462;SDS011;4268;52.506;13.462;2023-02-12T10:25:57;11.40;;;7.50;;
8462;SDS011;4268;52.506;13.462;2023-02-12T10:28:27;9.83;;;6.93;;
8462;SDS011;4268;52.506;13.462;2023-02-12T10:31:02;9.50;;;6.47;;
8462;SDS011;4268;52.506;13.462;2023-02-12T10:33:35;11.13;;;6.83;;
8462;SDS011;4268;52.506;13.462;2023-02-12T10:36:05;10.37;;;6.90;;
8462;SDS011;4268;52.506;13.462;2023-02-12T10:38:56;8.87;;;6.43;;
8462;SDS011;4268;52.506;13.462;2023-02-12T10:41:26;10.40;;;5.90;;
8462;SDS011;4268;52.506;13.462;2023-02-12T10:43:53;8.77;;;5.80;;
8462;SDS011;4268;52.506;13.462;2023-02-12T10:46:19;8.03;;;5.77;;
8462;SDS011;4268;52.506;13.462;2023-02-12T10:48:45;7.37;;;5.53;;
8462;SDS011;4268;52.506;13.462;2023-02-12T10:51:24;9.03;;;5.77;;
8462;SDS011;4268;52.506;13.462;2023-02-12T10:56:59;7.90;;;5.97;;
8462;SDS011;4268;52.506;13.462;2023-02-12T10:59:49;9.23;;;6.33;;
8462;SDS011;4268;52.506;13.462;2023-02-12T11:02:18;12.70;;;7.60;;
8462;SDS011;4268;52.506;13.462;2023-02-12T11:04:44;10.23;;;7.00;;
8462;SDS011;4268;52.506;13.462;2023-02-12T11:07:09;9.60;;;7.40;;
8462;SDS011;4268;52.506;13.462;2023-02-12T11:09:36;9.03;;;7.20;;
8462;SDS011;4268;52.506;13.462;2023-02-12T11:15:13;11.03;;;8.10;;
8462;SDS011;4268;52.506;13.462;2023-02-12T11:17:42;11.53;;;8.47;;
8462;SDS011;4268;52.506;13.462;2023-02-12T11:22:48;8.77;;;7.50;;
8462;SDS011;4268;52.506;13.462;2023-02-12T11:25:15;10.50;;;7.60;;
8462;SDS011;4268;52.506;13.462;2023-02-12T11:27:41;9.17;;;7.50;;
8462;SDS011;4268;52.506;13.462;2023-02-12T11:32:32;9.50;;;8.10;;
8462;SDS011;4268;52.506;13.462;2023-02-12T11:37:29;9.00;;;8.10;;
8462;SDS011;4268;52.506;13.462;2023-02-12T11:39:59;9.17;;;7.57;;
8462;SDS011;4268;52.506;13.462;2023-02-12T11:42:25;7.93;;;7.13;;
8462;SDS011;4268;52.506;13.462;2023-02-12T11:44:52;8.93;;;7.43;;
8462;SDS011;4268;52.506;13.462;2023-02-12T11:47:26;8.03;;;7.23;;
8462;SDS011;4268;52.506;13.462;2023-02-12T11:49:55;8.83;;;7.53;;
8462;SDS011;4268;52.506;13.462;2023-02-12T11:52:39;8.80;;;7.90;;
8462;SDS011;4268;52.506;13.462;2023-02-12T11:55:24;9.70;;;7.50;;
8462;SDS011;4268;52.506;13.462;2023-02-12T11:58:13;8.80;;;7.57;;
8462;SDS011;4268;52.506;13.462;2023-02-12T12:00:51;9.37;;;7.67;;
8462;SDS011;4268;52.506;13.462;2023-02-12T12:03:26;9.97;;;8.00;;
8462;SDS011;4268;52.506;13.462;2023-02-12T12:05:59;8.00;;;7.17;;
8462;SDS011;4268;52.506;13.462;2023-02-12T12:08:41;9.17;;;7.70;;
8462;SDS011;4268;52.506;13.462;2023-02-12T12:11:13;7.47;;;6.77;;
8462;SDS011;4268;52.506;13.462;2023-02-12T12:14:13;9.23;;;7.47;;
8462;SDS011;4268;52.506;13.462;2023-02-12T12:17:19;9.17;;;8.20;;
8462;SDS011;4268;52.506;13.462;2023-02-12T12:20:28;8.43;;;7.20;;
8462;SDS011;4268;52.506;13.462;2023-02-12T12:23:09;8.10;;;7.20;;
8462;SDS011;4268;52.506;13.462;2023-02-12T12:25:45;9.17;;;7.40;;
8462;SDS011;4268;52.506;13.462;2023-02-12T12:31:15;9.13;;;7.30;;
8462;SDS011;4268;52.506;13.462;2023-02-12T12:33:51;11.27;;;8.10;;
8462;SDS011;4268;52.506;13.462;2023-02-12T12:41:51;8.40;;;7.50;;
8462;SDS011;4268;52.506;13.462;2023-02-12T12:47:36;8.87;;;7.03;;
8462;SDS011;4268;52.506;13.462;2023-02-12T12:52:55;9.07;;;8.17;;
8462;SDS011;4268;52.506;13.462;2023-02-12T13:04:23;9.17;;;8.23;;
8462;SDS011;4268;52.506;13.462;2023-02-12T13:07:09;9.77;;;8.03;;
8462;SDS011;4268;52.506;13.462;2023-02-12T13:18:00;9.43;;;7.20;;
8462;SDS011;4268;52.506;13.462;2023-02-12T13:31:44;6.80;;;6.10;;
8462;SDS011;4268;52.506;13.462;2023-02-12T13:34:18;6.60;;;6.00;;
8462;SDS011;4268;52.506;13.462;2023-02-12T13:36:45;6.50;;;5.80;;
8462;SDS011;4268;52.506;13.462;2023-02-12T13:42:02;7.90;;;6.27;;
8462;SDS011;4268;52.506;13.462;2023-02-12T13:44:42;6.97;;;6.10;;
8462;SDS011;4268;52.506;13.462;2023-02-12T13:58:52;6.47;;;5.80;;
8462;SDS011;4268;52.506;13.462;2023-02-12T14:04:24;5.90;;;5.40;;
8462;SDS011;4268;52.506;13.462;2023-02-12T14:09:23;5.63;;;5.13;;
8462;SDS011;4268;52.506;13.462;2023-02-12T14:11:56;7.70;;;5.30;;
8462;SDS011;4268;52.506;13.462;2023-02-12T14:14:30;5.47;;;4.97;;
8462;SDS011;4268;52.506;13.462;2023-02-12T14:19:53;5.00;;;4.50;;
8462;SDS011;4268;52.506;13.462;2023-02-12T14:51:42;5.20;;;4.80;;
8462;SDS011;4268;52.506;13.462;2023-02-12T14:57:00;5.40;;;4.80;;
8462;SDS011;4268;52.506;13.462;2023-02-12T14:59:31;6.33;;;5.73;;
8462;SDS011;4268;52.506;13.462;2023-02-12T15:02:01;5.40;;;4.90;;
8462;SDS011;4268;52.506;13.462;2023-02-12T15:04:30;6.50;;;5.90;;
8462;SDS011;4268;52.506;13.462;2023-02-12T15:07:07;6.10;;;5.50;;
8462;SDS011;4268;52.506;13.462;2023-02-12T15:09:47;5.90;;;5.40;;
8462;SDS011;4268;52.506;13.462;2023-02-12T15:12:21;5.47;;;4.97;;
8462;SDS011;4268;52.506;13.462;2023-02-12T15:15:31;6.30;;;5.70;;
8462;SDS011;4268;52.506;13.462;2023-02-12T15:18:09;5.67;;;5.20;;
8462;SDS011;4268;52.506;13.462;2023-02-12T15:20:59;6.87;;;5.90;;
8462;SDS011;4268;52.506;13.462;2023-02-12T15:23:38;6.37;;;5.77;;
8462;SDS011;4268;52.506;13.462;2023-02-12T15:26:05;6.37;;;5.77;;
8462;SDS011;4268;52.506;13.462;2023-02-12T15:28:46;7.30;;;6.40;;
8462;SDS011;4268;52.506;13.462;2023-02-12T15:31:15;6.53;;;5.93;;
8462;SDS011;4268;52.506;13.462;2023-02-12T15:33:44;7.13;;;5.93;;
8462;SDS011;4268;52.506;13.462;2023-02-12T15:36:15;7.10;;;6.40;;
8462;SDS011;4268;52.506;13.462;2023-02-12T15:38:46;6.37;;;5.80;;
8462;SDS011;4268;52.506;13.462;2023-02-12T15:49:37;7.90;;;6.47;;
8462;SDS011;4268;52.506;13.462;2023-02-12T15:52:09;7.43;;;6.47;;
8462;SDS011;4268;52.506;13.462;2023-02-12T15:54:42;7.03;;;6.33;;
8462;SDS011;4268;52.506;13.462;2023-02-12T15:57:10;6.97;;;5.93;;
8462;SDS011;4268;52.506;13.462;2023-02-12T15:59:37;7.43;;;6.40;;
8462;SDS011;4268;52.506;13.462;2023-02-12T16:02:13;6.70;;;6.10;;
8462;SDS011;4268;52.506;13.462;2023-02-12T16:04:42;7.50;;;6.47;;
8462;SDS011;4268;52.506;13.462;2023-02-12T16:07:08;7.13;;;6.43;;
8462;SDS011;4268;52.506;13.462;2023-02-12T16:09:36;9.27;;;6.90;;
8462;SDS011;4268;52.506;13.462;2023-02-12T16:12:03;6.77;;;5.77;;
8462;SDS011;4268;52.506;13.462;2023-02-12T16:14:36;5.73;;;5.23;;
8462;SDS011;4268;52.506;13.462;2023-02-12T16:20:01;5.40;;;4.90;;
8462;SDS011;4268;52.506;13.462;2023-02-12T16:22:40;5.40;;;4.90;;
8462;SDS011;4268;52.506;13.462;2023-02-12T16:25:15;5.23;;;4.70;;
8462;SDS011;4268;52.506;13.462;2023-02-12T16:33:30;5.20;;;4.80;;
8462;SDS011;4268;52.506;13.462;2023-02-12T16:36:02;6.07;;;4.90;;
8462;SDS011;4268;52.506;13.462;2023-02-12T16:38:41;4.80;;;4.40;;
8462;SDS011;4268;52.506;13.462;2023-02-12T16:41:13;5.50;;;4.87;;
8462;SDS011;4268;52.506;13.462;2023-02-12T16:43:42;5.70;;;4.60;;
8462;SDS011;4268;52.506;13.462;2023-02-12T16:46:08;7.23;;;4.90;;
8462;SDS011;4268;52.506;13.462;2023-02-12T16:48:35;4.60;;;4.20;;
8462;SDS011;4268;52.506;13.462;2023-02-12T16:51:06;5.97;;;5.27;;
8462;SDS011;4268;52.506;13.462;2023-02-12T16:54:01;5.80;;;5.17;;
8462;SDS011;4268;52.506;13.462;2023-02-12T16:56:31;4.73;;;4.33;;
8462;SDS011;4268;52.506;13.462;2023-02-12T16:59:01;5.10;;;4.60;;
8462;SDS011;4268;52.506;13.462;2023-02-12T17:01:29;5.00;;;4.50;;
8462;SDS011;4268;52.506;13.462;2023-02-12T17:03:57;4.93;;;4.40;;
8462;SDS011;4268;52.506;13.462;2023-02-12T17:06:28;6.57;;;5.87;;
8462;SDS011;4268;52.506;13.462;2023-02-12T17:08:55;6.10;;;5.60;;
8462;SDS011;4268;52.506;13.462;2023-02-12T17:11:21;5.37;;;4.87;;
8462;SDS011;4268;52.506;13.462;2023-02-12T17:13:49;5.30;;;4.80;;
8462;SDS011;4268;52.506;13.462;2023-02-12T17:16:16;4.67;;;4.27;;
8462;SDS011;4268;52.506;13.462;2023-02-12T17:18:43;5.63;;;4.77;;
8462;SDS011;4268;52.506;13.462;2023-02-12T17:23:48;5.47;;;4.90;;
8462;SDS011;4268;52.506;13.462;2023-02-12T17:26:14;5.77;;;4.57;;
8462;SDS011;4268;52.506;13.462;2023-02-12T17:28:39;4.97;;;4.57;;
8462;SDS011;4268;52.506;13.462;2023-02-12T17:31:05;4.87;;;4.47;;
8462;SDS011;4268;52.506;13.462;2023-02-12T17:33:34;4.87;;;4.43;;
8462;SDS011;4268;52.506;13.462;2023-02-12T17:36:00;4.70;;;4.30;;
8462;SDS011;4268;52.506;13.462;2023-02-12T17:38:25;4.77;;;4.37;;
8462;SDS011;4268;52.506;13.462;2023-02-12T17:40:51;5.80;;;4.70;;
8462;SDS011;4268;52.506;13.462;2023-02-12T17:43:17;4.90;;;4.50;;
8462;SDS011;4268;52.506;13.462;2023-02-12T17:45:43;5.13;;;4.40;;
8462;SDS011;4268;52.506;13.462;2023-02-12T17:48:09;4.43;;;4.03;;
8462;SDS011;4268;52.506;13.462;2023-02-12T17:50:38;5.87;;;4.57;;
8462;SDS011;4268;52.506;13.462;2023-02-12T17:53:04;5.20;;;4.70;;
8462;SDS011;4268;52.506;13.462;2023-02-12T17:55:30;5.40;;;4.90;;
8462;SDS011;4268;52.506;13.462;2023-02-12T17:57:56;6.17;;;5.67;;
8462;SDS011;4268;52.506;13.462;2023-02-12T18:00:22;7.10;;;5.60;;